createdAt,value
2023-05-12T00:01:28.396Z,13.07
2023-05-12T00:03:55.098Z,13.07
2023-05-12T00:06:21.654Z,13.02
2023-05-12T00:08:48.208Z,12.95
2023-05-12T00:11:14.706Z,12.95
2023-05-12T00:13:41.268Z,12.92
2023-05-12T00:16:07.977Z,12.91
2023-05-12T00:18:34.853Z,12.89
2023-05-12T00:21:01.331Z,12.88
2023-05-12T00:23:27.923Z,12.85
2023-05-12T00:25:54.340Z,12.77
2023-05-12T00:28:21.043Z,12.72
2023-05-12T00:30:47.468Z,12.66
2023-05-12T00:33:13.981Z,12.60
2023-05-12T00:35:40.557Z,12.64
2023-05-12T00:38:07.291Z,12.64
2023-05-12T00:40:33.843Z,12.68
2023-05-12T00:43:00.331Z,12.62
2023-05-12T00:45:29.344Z,12.66
2023-05-12T00:47:57.093Z,12.66
2023-05-12T00:50:24.093Z,12.68
2023-05-12T00:52:51.904Z,12.71
2023-05-12T00:55:18.838Z,12.68
2023-05-12T00:57:45.542Z,12.69
2023-05-12T01:00:15.109Z,12.72
2023-05-12T01:02:43.387Z,12.77
2023-05-12T01:05:10.424Z,12.75
2023-05-12T01:07:39.416Z,12.76
2023-05-12T01:10:17.915Z,12.83
2023-05-12T01:12:44.852Z,12.86
2023-05-12T01:15:12.927Z,12.90
2023-05-12T01:17:45.255Z,12.88
2023-05-12T01:20:12.424Z,12.89
2023-05-12T01:22:39.628Z,12.94
2023-05-12T01:25:09.612Z,12.97
2023-05-12T01:27:39.708Z,13.00
2023-05-12T01:30:08.573Z,13.01
2023-05-12T01:32:36.669Z,12.94
2023-05-12T01:35:04.098Z,12.96
2023-05-12T01:37:32.548Z,12.96
2023-05-12T01:40:01.117Z,12.98
2023-05-12T01:42:28.010Z,12.97
2023-05-12T01:44:54.578Z,13.02
2023-05-12T01:47:21.749Z,12.99
2023-05-12T01:49:54.651Z,13.00
2023-05-12T01:52:21.284Z,12.99
2023-05-12T01:54:47.825Z,12.97
2023-05-12T01:57:14.631Z,13.00
2023-05-12T01:59:41.369Z,12.99
2023-05-12T02:02:08.044Z,13.01
2023-05-12T02:04:34.814Z,12.98
2023-05-12T02:07:02.209Z,13.00
2023-05-12T02:09:29.120Z,13.00
2023-05-12T02:11:59.881Z,13.01
2023-05-12T02:14:26.320Z,13.00
2023-05-12T02:16:53.125Z,12.96
2023-05-12T02:19:21.804Z,12.98
2023-05-12T02:21:48.898Z,12.96
2023-05-12T02:24:16.517Z,12.97
2023-05-12T02:26:43.945Z,12.96
2023-05-12T02:29:11.982Z,12.97
2023-05-12T02:31:39.105Z,13.03
2023-05-12T02:34:14.864Z,12.97
2023-05-12T02:36:41.658Z,12.97
2023-05-12T02:39:08.110Z,12.94
2023-05-12T02:41:35.524Z,12.92
2023-05-12T02:44:02.029Z,12.91
2023-05-12T02:46:28.516Z,12.93
2023-05-12T02:48:55.260Z,12.92
2023-05-12T02:51:22.024Z,12.89
2023-05-12T02:53:48.734Z,12.92
2023-05-12T02:56:16.220Z,12.93
2023-05-12T02:58:42.808Z,12.97
2023-05-12T03:01:11.460Z,12.94
2023-05-12T03:03:39.772Z,12.92
2023-05-12T03:06:06.881Z,12.87
2023-05-12T03:08:33.366Z,12.82
2023-05-12T03:11:00.487Z,12.86
2023-05-12T03:13:26.949Z,12.90
2023-05-12T03:15:53.499Z,12.93
2023-05-12T03:18:20.160Z,12.92
2023-05-12T03:20:47.080Z,12.90
2023-05-12T03:23:13.528Z,12.95
2023-05-12T03:25:40.177Z,12.96
2023-05-12T03:28:07.429Z,12.96
2023-05-12T03:30:34.205Z,12.95
2023-05-12T03:33:00.719Z,12.93
2023-05-12T03:35:27.458Z,12.96
2023-05-12T03:37:53.993Z,12.93
2023-05-12T03:40:20.988Z,12.90
2023-05-12T03:42:47.866Z,12.90
2023-05-12T03:45:14.542Z,12.95
2023-05-12T03:47:41.265Z,12.98
2023-05-12T03:50:08.652Z,12.92
2023-05-12T03:52:38.213Z,12.93
2023-05-12T03:55:07.026Z,12.99
2023-05-12T03:57:36.295Z,12.99
2023-05-12T04:00:05.177Z,12.96
2023-05-12T04:02:39.234Z,12.95
2023-05-12T04:05:08.683Z,12.94
2023-05-12T04:07:35.451Z,12.99
2023-05-12T04:10:02.029Z,13.02
2023-05-12T04:12:28.912Z,12.99
2023-05-12T04:14:56.041Z,13.01
2023-05-12T04:17:24.064Z,13.04
2023-05-12T04:19:53.373Z,13.05
2023-05-12T04:22:19.941Z,13.07
2023-05-12T04:24:46.710Z,13.09
2023-05-12T04:27:13.425Z,13.09
2023-05-12T04:29:39.869Z,13.11
2023-05-12T04:32:06.677Z,13.13
2023-05-12T04:34:34.589Z,13.13
2023-05-12T04:37:01.117Z,13.17
2023-05-12T04:39:28.312Z,13.17
2023-05-12T04:41:55.053Z,13.21
2023-05-12T04:44:22.339Z,13.20
2023-05-12T04:46:53.299Z,13.23
2023-05-12T04:49:20.222Z,13.29
2023-05-12T04:51:48.018Z,13.30
2023-05-12T04:54:14.694Z,13.31
2023-05-12T04:56:41.718Z,13.37
2023-05-12T04:59:08.475Z,13.41
2023-05-12T05:01:35.264Z,13.47
2023-05-12T05:04:02.392Z,13.46
2023-05-12T05:06:28.919Z,13.47
2023-05-12T05:08:55.980Z,13.47
2023-05-12T05:11:23.173Z,13.55
2023-05-12T05:13:49.750Z,13.57
2023-05-12T05:16:17.207Z,13.64
2023-05-12T05:18:46.478Z,13.68
2023-05-12T05:21:16.637Z,13.73
2023-05-12T05:23:43.582Z,13.77
2023-05-12T05:26:10.581Z,13.77
2023-05-12T05:28:39.919Z,13.89
2023-05-12T05:31:07.667Z,13.93
2023-05-12T05:33:34.606Z,14.01
2023-05-12T05:36:02.058Z,14.03
2023-05-12T05:38:29.129Z,14.12
2023-05-12T05:40:55.940Z,14.19
2023-05-12T05:43:24.182Z,14.23
2023-05-12T05:45:51.630Z,14.29
2023-05-12T05:48:20.748Z,14.37
2023-05-12T05:50:47.539Z,14.40
2023-05-12T05:53:14.268Z,14.42
2023-05-12T05:55:41.136Z,14.49
2023-05-12T05:58:07.723Z,14.55
2023-05-12T06:00:34.239Z,14.62
2023-05-12T06:03:01.200Z,14.69
2023-05-12T06:05:28.019Z,14.69
2023-05-12T06:07:54.810Z,14.71
2023-05-12T06:10:21.639Z,14.73
2023-05-12T06:12:48.623Z,14.76
2023-05-12T06:15:15.384Z,14.80
2023-05-12T06:17:41.914Z,14.89
2023-05-12T06:20:08.934Z,14.91
2023-05-12T06:22:35.555Z,14.99
2023-05-12T06:25:02.695Z,15.03
2023-05-12T06:27:29.465Z,15.09
2023-05-12T06:29:55.947Z,15.17
2023-05-12T06:32:22.433Z,15.22
2023-05-12T06:34:49.244Z,15.25
2023-05-12T06:37:15.901Z,15.33
2023-05-12T06:39:42.487Z,15.43
2023-05-12T06:42:08.918Z,15.53
2023-05-12T06:44:42.686Z,15.61
2023-05-12T06:47:09.522Z,15.72
2023-05-12T06:49:37.294Z,15.76
2023-05-12T06:52:05.202Z,15.82
2023-05-12T06:54:31.647Z,15.87
2023-05-12T06:56:58.518Z,15.97
2023-05-12T06:59:25.322Z,15.99
2023-05-12T07:01:51.984Z,16.05
2023-05-12T07:04:18.645Z,16.12
2023-05-12T07:06:45.092Z,16.23
2023-05-12T07:09:11.655Z,16.29
2023-05-12T07:11:38.128Z,16.37
2023-05-12T07:14:04.639Z,16.38
2023-05-12T07:16:31.097Z,16.41
2023-05-12T07:18:57.850Z,16.46
2023-05-12T07:21:24.811Z,16.51
2023-05-12T07:23:51.523Z,16.54
2023-05-12T07:26:18.609Z,16.59
2023-05-12T07:28:45.214Z,16.59
2023-05-12T07:31:11.786Z,16.63
2023-05-12T07:33:38.261Z,16.65
2023-05-12T07:36:05.053Z,16.68
2023-05-12T07:38:32.129Z,16.69
2023-05-12T07:40:59.963Z,16.72
2023-05-12T07:43:26.552Z,16.74
2023-05-12T07:45:54.532Z,16.85
2023-05-12T07:48:20.974Z,16.94
2023-05-12T07:50:47.630Z,17.12
2023-05-12T07:53:14.212Z,17.20
2023-05-12T07:55:41.324Z,17.30
2023-05-12T07:58:07.834Z,17.51
2023-05-12T08:00:34.326Z,17.51
2023-05-12T08:03:01.010Z,17.65
2023-05-12T08:05:27.655Z,17.77
2023-05-12T08:07:54.255Z,17.89
2023-05-12T08:10:22.457Z,18.10
2023-05-12T08:12:49.176Z,18.23
2023-05-12T08:15:18.843Z,18.35
2023-05-12T08:17:45.684Z,18.54
2023-05-12T08:20:12.485Z,18.54
2023-05-12T08:22:39.928Z,18.53
2023-05-12T08:25:08.726Z,18.63
2023-05-12T08:27:36.464Z,18.68
2023-05-12T08:30:03.163Z,18.74
2023-05-12T08:32:29.684Z,18.79
2023-05-12T08:34:56.130Z,18.93
2023-05-12T08:37:22.813Z,19.01
2023-05-12T08:39:49.264Z,19.12
2023-05-12T08:42:39.795Z,19.22
2023-05-12T08:45:07.591Z,19.32
2023-05-12T08:47:35.001Z,19.38
2023-05-12T08:50:03.586Z,19.45
2023-05-12T08:52:34.996Z,19.57
2023-05-12T08:55:03.406Z,19.71
2023-05-12T08:57:31.142Z,19.82
2023-05-12T08:59:59.939Z,19.79
2023-05-12T09:02:37.776Z,19.93
2023-05-12T09:05:11.677Z,20.11
2023-05-12T09:07:43.863Z,20.22
2023-05-12T09:10:33.012Z,20.41
2023-05-12T09:13:26.676Z,20.59
2023-05-12T09:15:56.440Z,20.73
2023-05-12T09:18:23.349Z,20.77
2023-05-12T09:20:49.806Z,20.92
2023-05-12T09:23:18.555Z,21.06
2023-05-12T09:25:46.826Z,21.18
2023-05-12T09:28:14.569Z,21.35
2023-05-12T09:30:42.348Z,21.22
2023-05-12T09:33:10.764Z,21.33
2023-05-12T09:35:45.315Z,21.33
2023-05-12T09:38:14.898Z,21.49
2023-05-12T09:40:42.970Z,21.60
2023-05-12T09:43:11.926Z,21.71
2023-05-12T09:45:39.891Z,21.84
2023-05-12T09:48:14.253Z,21.92
2023-05-12T09:50:51.303Z,21.93
2023-05-12T09:53:19.419Z,22.09
2023-05-12T09:55:46.924Z,22.18
2023-05-12T09:58:16.418Z,22.39
2023-05-12T10:00:59.096Z,22.40
2023-05-12T10:03:32.493Z,22.44
2023-05-12T10:06:02.664Z,22.63
2023-05-12T10:08:37.539Z,22.95
2023-05-12T10:11:06.805Z,23.13
2023-05-12T10:13:33.884Z,23.13
2023-05-12T10:16:01.139Z,23.03
2023-05-12T10:18:28.243Z,23.24
2023-05-12T10:20:56.686Z,23.42
2023-05-12T10:23:23.340Z,22.93
2023-05-12T10:25:50.034Z,22.52
2023-05-12T10:28:17.472Z,22.05
2023-05-12T10:30:46.305Z,21.79
2023-05-12T10:33:13.043Z,21.56
2023-05-12T10:35:42.724Z,21.41
2023-05-12T10:38:15.540Z,21.29
2023-05-12T10:41:01.534Z,21.52
2023-05-12T10:43:29.812Z,22.22
2023-05-12T10:46:30.416Z,22.26
2023-05-12T10:49:06.002Z,22.45
2023-05-12T10:51:33.911Z,22.69
2023-05-12T10:54:09.746Z,22.68
2023-05-12T10:56:39.452Z,22.55
2023-05-12T10:59:17.877Z,22.53
2023-05-12T11:02:09.108Z,22.36
2023-05-12T11:04:59.232Z,22.13
2023-05-12T11:07:32.815Z,22.03
2023-05-12T11:10:02.881Z,22.36
2023-05-12T11:12:35.265Z,23.22
2023-05-12T11:15:03.564Z,23.37
2023-05-12T11:17:30.161Z,23.08
2023-05-12T11:19:56.928Z,22.69
2023-05-12T11:22:24.210Z,22.41
2023-05-12T11:24:52.447Z,22.29
2023-05-12T11:27:22.458Z,22.14
2023-05-12T11:29:57.550Z,22.03
2023-05-12T11:32:24.010Z,21.97
2023-05-12T11:34:50.613Z,21.81
2023-05-12T11:37:21.150Z,21.77
2023-05-12T11:39:47.914Z,21.64
2023-05-12T11:42:16.214Z,21.65
2023-05-12T11:44:49.436Z,21.78
2023-05-12T11:47:17.493Z,22.53
2023-05-12T11:49:51.056Z,23.53
2023-05-12T11:52:19.617Z,24.04
2023-05-12T11:55:06.015Z,23.47
2023-05-12T11:57:34.306Z,24.24
2023-05-12T12:00:09.136Z,24.10
2023-05-12T12:02:37.290Z,23.63
2023-05-12T12:05:05.873Z,22.89
2023-05-12T12:07:36.353Z,22.90
2023-05-12T12:10:17.214Z,22.72
2023-05-12T12:12:44.576Z,22.47
2023-05-12T12:15:12.203Z,22.38
2023-05-12T12:17:39.890Z,22.33
2023-05-12T12:20:08.166Z,22.34
2023-05-12T12:22:35.347Z,22.67
2023-05-12T12:25:02.734Z,23.73
2023-05-12T12:27:29.416Z,24.44
2023-05-12T12:29:55.871Z,24.92
2023-05-12T12:32:22.668Z,25.48
2023-05-12T12:34:49.299Z,25.61
2023-05-12T12:37:17.097Z,25.81
2023-05-12T12:39:43.812Z,26.24
2023-05-12T12:42:10.417Z,26.66
2023-05-12T12:44:37.013Z,26.69
2023-05-12T12:47:04.263Z,26.96
2023-05-12T12:49:30.978Z,27.25
2023-05-12T12:51:57.528Z,27.47
2023-05-12T12:54:26.922Z,27.16
2023-05-12T12:56:53.823Z,27.24
2023-05-12T12:59:20.244Z,27.41
2023-05-12T13:01:46.850Z,27.45
2023-05-12T13:04:13.491Z,27.89
2023-05-12T13:06:40.076Z,27.76
2023-05-12T13:09:06.560Z,27.16
2023-05-12T13:11:33.159Z,27.49
2023-05-12T13:13:59.699Z,27.06
2023-05-12T13:16:26.340Z,27.48
2023-05-12T13:18:52.979Z,27.73
2023-05-12T13:21:19.697Z,27.69
2023-05-12T13:23:46.177Z,27.59
2023-05-12T13:26:12.876Z,27.42
2023-05-12T13:28:39.319Z,27.11
2023-05-12T13:31:06.373Z,27.40
2023-05-12T13:33:33.390Z,27.42
2023-05-12T13:35:59.982Z,27.45
2023-05-12T13:38:26.487Z,27.75
2023-05-12T13:40:53.179Z,27.60
2023-05-12T13:43:19.739Z,28.04
2023-05-12T13:45:46.228Z,28.57
2023-05-12T13:48:12.736Z,28.28
2023-05-12T13:50:39.350Z,28.03
2023-05-12T13:53:06.505Z,28.53
2023-05-12T13:55:34.291Z,28.59
2023-05-12T13:58:00.862Z,28.88
2023-05-12T14:00:29.853Z,28.79
2023-05-12T14:02:57.733Z,28.88
2023-05-12T14:05:24.692Z,28.88
2023-05-12T14:07:51.322Z,28.41
2023-05-12T14:10:18.679Z,28.52
2023-05-12T14:12:45.292Z,28.71
2023-05-12T14:17:46.220Z,28.78
2023-05-12T14:20:13.085Z,29.05
2023-05-12T14:22:41.827Z,29.00
2023-05-12T14:25:08.794Z,28.75
2023-05-12T14:27:35.292Z,28.77
2023-05-12T14:30:02.429Z,28.38
2023-05-12T14:32:28.964Z,28.66
2023-05-12T14:34:55.551Z,28.80
2023-05-12T14:37:21.985Z,28.24
2023-05-12T14:39:48.622Z,28.62
2023-05-12T14:42:15.060Z,28.66
2023-05-12T14:44:41.753Z,27.72
2023-05-12T14:47:09.064Z,28.17
2023-05-12T14:49:36.010Z,28.42
2023-05-12T14:52:02.885Z,27.79
2023-05-12T14:54:29.559Z,28.23
2023-05-12T14:56:56.571Z,28.57
2023-05-12T14:59:23.246Z,28.56
2023-05-12T15:01:49.770Z,28.76
2023-05-12T15:04:16.605Z,28.95
2023-05-12T15:06:43.145Z,28.63
2023-05-12T15:09:09.789Z,28.65
2023-05-12T15:11:36.841Z,28.94
2023-05-12T15:14:04.680Z,28.94
2023-05-12T15:16:31.382Z,29.16
2023-05-12T15:18:58.089Z,28.54
2023-05-12T15:21:24.540Z,28.91
2023-05-12T15:23:51.389Z,28.62
2023-05-12T15:26:32.065Z,28.25
2023-05-12T15:28:59.952Z,28.18
2023-05-12T15:31:29.397Z,27.92
2023-05-12T15:33:56.880Z,27.87
2023-05-12T15:36:23.627Z,27.99
2023-05-12T15:38:50.528Z,27.88
2023-05-12T15:41:17.183Z,27.85
2023-05-12T15:43:43.644Z,27.72
2023-05-12T15:46:11.626Z,27.64
2023-05-12T15:48:39.323Z,27.78
2023-05-12T15:51:06.828Z,26.93
2023-05-12T15:53:33.550Z,26.38
2023-05-12T15:56:01.023Z,26.50
2023-05-12T15:58:28.341Z,27.18
2023-05-12T16:00:55.772Z,26.79
2023-05-12T16:03:23.018Z,27.22
2023-05-12T16:05:49.875Z,27.12
2023-05-12T16:08:16.554Z,27.08
2023-05-12T16:10:43.301Z,27.32
2023-05-12T16:13:09.889Z,27.20
2023-05-12T16:15:36.774Z,26.43
2023-05-12T16:18:03.403Z,26.21
2023-05-12T16:20:30.005Z,26.58
2023-05-12T16:22:56.620Z,26.77
2023-05-12T16:25:23.099Z,26.62
2023-05-12T16:27:50.188Z,26.81
2023-05-12T16:30:19.333Z,26.79
2023-05-12T16:32:47.389Z,26.62
2023-05-12T16:35:14.161Z,26.43
2023-05-12T16:37:41.444Z,26.34
2023-05-12T16:40:09.486Z,26.68
2023-05-12T16:42:36.690Z,26.74
2023-05-12T16:45:03.455Z,26.60
2023-05-12T16:47:30.359Z,26.19
2023-05-12T16:49:58.903Z,26.22
2023-05-12T16:52:26.288Z,25.56
2023-05-12T16:54:53.173Z,24.96
2023-05-12T16:57:20.328Z,24.67
2023-05-12T16:59:48.415Z,24.37
2023-05-12T17:02:15.441Z,24.06
2023-05-12T17:04:42.534Z,24.07
2023-05-12T17:07:09.773Z,24.26
2023-05-12T17:09:36.590Z,24.16
2023-05-12T17:12:04.737Z,23.92
2023-05-12T17:14:31.348Z,23.40
2023-05-12T17:16:58.267Z,23.22
2023-05-12T17:19:24.813Z,23.27
2023-05-12T17:21:51.428Z,23.18
2023-05-12T17:24:18.314Z,22.90
2023-05-12T17:26:45.089Z,22.97
2023-05-12T17:29:11.699Z,22.86
2023-05-12T17:31:38.655Z,22.80
2023-05-12T17:34:05.675Z,22.75
2023-05-12T17:36:32.905Z,22.69
2023-05-12T17:39:00.014Z,22.49
2023-05-12T17:41:29.001Z,22.11
2023-05-12T17:43:55.869Z,22.19
2023-05-12T17:46:23.078Z,22.19
2023-05-12T17:48:49.688Z,22.11
2023-05-12T17:51:16.217Z,21.83
2023-05-12T17:53:43.032Z,21.73
2023-05-12T17:56:09.514Z,21.40
2023-05-12T17:58:36.018Z,21.39
2023-05-12T18:01:02.582Z,21.39
2023-05-12T18:03:29.262Z,21.22
2023-05-12T18:05:55.841Z,21.20
2023-05-12T18:08:22.350Z,21.25
2023-05-12T18:10:48.883Z,21.20
2023-05-12T18:13:15.681Z,21.15
2023-05-12T18:15:42.380Z,21.03
2023-05-12T18:18:10.032Z,20.97
2023-05-12T18:20:36.815Z,20.90
2023-05-12T18:23:03.269Z,20.75
2023-05-12T18:25:29.864Z,20.69
2023-05-12T18:27:56.344Z,20.59
2023-05-12T18:30:22.946Z,20.49
2023-05-12T18:32:49.564Z,20.38
2023-05-12T18:35:16.623Z,20.32
2023-05-12T18:37:43.177Z,19.95
2023-05-12T18:40:09.898Z,20.04
2023-05-12T18:42:36.440Z,19.99
2023-05-12T18:45:03.245Z,19.92
2023-05-12T18:47:30.102Z,19.90
2023-05-12T18:49:56.738Z,19.83
2023-05-12T18:52:23.131Z,19.69
2023-05-12T18:54:49.948Z,19.61
2023-05-12T18:57:17.301Z,19.56
2023-05-12T18:59:43.927Z,19.38
2023-05-12T19:02:10.767Z,19.34
2023-05-12T19:04:37.488Z,19.29
2023-05-12T19:07:06.396Z,19.24
2023-05-12T19:09:33.083Z,19.22
2023-05-12T19:11:59.540Z,19.11
2023-05-12T19:14:26.010Z,18.99
2023-05-12T19:16:52.744Z,18.84
2023-05-12T19:19:19.253Z,18.94
2023-05-12T19:21:45.831Z,18.81
2023-05-12T19:24:12.428Z,18.65
2023-05-12T19:26:39.003Z,18.63
2023-05-12T19:29:05.772Z,18.53
2023-05-12T19:31:34.158Z,18.56
2023-05-12T19:34:00.829Z,18.50
2023-05-12T19:36:29.109Z,18.51
2023-05-12T19:38:59.420Z,18.45
2023-05-12T19:41:29.364Z,18.38
2023-05-12T19:43:55.992Z,18.30
2023-05-12T19:46:23.044Z,18.19
2023-05-12T19:48:51.162Z,18.17
2023-05-12T19:51:17.697Z,18.15
2023-05-12T19:53:44.564Z,18.06
2023-05-12T19:56:11.296Z,17.92
2023-05-12T19:58:38.221Z,17.92
2023-05-12T20:01:04.915Z,17.84
2023-05-12T20:03:31.654Z,17.82
2023-05-12T20:05:58.848Z,17.73
2023-05-12T20:08:25.408Z,17.69
2023-05-12T20:10:52.065Z,17.66
2023-05-12T20:13:18.490Z,17.62
2023-05-12T20:15:45.380Z,17.52
2023-05-12T20:18:14.594Z,17.51
2023-05-12T20:20:43.019Z,17.47
2023-05-12T20:23:09.525Z,17.41
2023-05-12T20:25:36.801Z,17.21
2023-05-12T20:28:03.357Z,17.18
2023-05-12T20:30:29.885Z,17.15
2023-05-12T20:32:56.436Z,17.12
2023-05-12T20:35:23.503Z,17.08
2023-05-12T20:37:50.562Z,17.02
2023-05-12T20:40:17.056Z,16.92
2023-05-12T20:42:49.063Z,16.93
2023-05-12T20:45:16.239Z,16.88
2023-05-12T20:47:42.874Z,16.77
2023-05-12T20:50:10.699Z,16.75
2023-05-12T20:52:39.954Z,16.66
2023-05-12T20:55:07.437Z,16.66
2023-05-12T20:57:33.969Z,16.67
2023-05-12T21:00:00.509Z,16.58
2023-05-12T21:02:28.571Z,16.50
2023-05-12T21:04:55.654Z,16.37
2023-05-12T21:07:22.222Z,16.42
2023-05-12T21:09:48.666Z,16.39
2023-05-12T21:12:15.425Z,16.40
2023-05-12T21:14:43.319Z,16.33
2023-05-12T21:17:10.453Z,16.23
2023-05-12T21:19:37.986Z,16.22
2023-05-12T21:22:06.170Z,16.14
2023-05-12T21:24:33.355Z,16.14
2023-05-12T21:27:03.100Z,16.09
2023-05-12T21:29:29.683Z,16.07
2023-05-12T21:31:56.513Z,15.95
2023-05-12T21:34:23.022Z,15.90
2023-05-12T21:36:49.994Z,15.85
2023-05-12T21:39:16.458Z,15.77
2023-05-12T21:41:43.158Z,15.76
2023-05-12T21:44:11.170Z,15.74
2023-05-12T21:46:38.211Z,15.69
2023-05-12T21:49:04.749Z,15.61
2023-05-12T21:51:33.082Z,15.64
2023-05-12T21:54:00.159Z,15.56
2023-05-12T21:56:26.905Z,15.55
2023-05-12T21:58:53.479Z,15.62
2023-05-12T22:01:20.425Z,15.58
2023-05-12T22:03:47.066Z,15.52
2023-05-12T22:06:13.831Z,15.53
2023-05-12T22:08:40.259Z,15.50
2023-05-12T22:11:06.866Z,15.36
2023-05-12T22:13:33.333Z,15.36
2023-05-12T22:16:00.334Z,15.35
2023-05-12T22:18:27.362Z,15.28
2023-05-12T22:20:53.896Z,15.14
2023-05-12T22:23:20.299Z,15.21
2023-05-12T22:25:46.989Z,15.11
2023-05-12T22:28:13.607Z,15.09
2023-05-12T22:30:41.587Z,15.08
2023-05-12T22:33:08.156Z,15.06
2023-05-12T22:35:34.937Z,14.90
2023-05-12T22:38:01.627Z,14.92
2023-05-12T22:40:28.095Z,14.82
2023-05-12T22:42:54.579Z,14.67
2023-05-12T22:45:21.279Z,14.55
2023-05-12T22:47:47.735Z,14.42
2023-05-12T22:50:14.251Z,14.32
2023-05-12T22:52:40.728Z,14.31
2023-05-12T22:55:07.681Z,14.26
2023-05-12T22:57:34.091Z,14.20
2023-05-12T23:00:00.533Z,14.20
2023-05-12T23:02:27.032Z,14.18
2023-05-12T23:04:53.782Z,14.16
2023-05-12T23:07:20.202Z,14.04
2023-05-12T23:09:46.688Z,13.86
2023-05-12T23:12:13.114Z,13.72
2023-05-12T23:14:39.862Z,13.77
2023-05-12T23:17:06.610Z,13.68
2023-05-12T23:19:33.102Z,13.55
2023-05-12T23:21:59.629Z,13.62
2023-05-12T23:24:26.317Z,13.58
2023-05-12T23:26:52.834Z,13.50
2023-05-12T23:29:19.304Z,13.42
2023-05-12T23:31:45.819Z,13.37
2023-05-12T23:34:12.667Z,13.30
2023-05-12T23:36:39.213Z,13.31
2023-05-12T23:39:05.675Z,13.30
2023-05-12T23:41:33.839Z,13.27
2023-05-12T23:44:00.713Z,13.15
2023-05-12T23:46:27.117Z,13.19
2023-05-12T23:48:56.018Z,13.17
2023-05-12T23:51:23.146Z,13.19
2023-05-12T23:53:49.834Z,13.15
2023-05-12T23:56:16.251Z,13.18
2023-05-12T23:58:42.842Z,13.07
